Time;durP1;ratioP1;P1;durP2;ratioP2;P2;SDS_P1;SDS_P2;PMS_P1;PMS_P2;Temp;Humidity;BMP_temperature;BMP_pressure;BME280_temperature;BME280_humidity;BME280_pressure;Samples;Min_cycle;Max_cycle;Signal;HPM_P1;HPM_P2
2022/01/09 00:00:01;;;;;;;7.30;6.03;;;5.40;97.80;;;;;;5156371;27;20043;-77
2022/01/09 00:02:26;;;;;;;8.02;6.72;;;5.40;97.80;;;;;;5156354;27;20038;-77
2022/01/09 00:04:52;;;;;;;9.07;7.18;;;5.40;97.80;;;;;;5139305;27;20390;-77
2022/01/09 00:07:18;;;;;;;8.00;6.57;;;5.40;97.70;;;;;;5156213;27;20553;-77
2022/01/09 00:09:44;;;;;;;9.25;6.28;;;5.50;97.80;;;;;;5156174;27;20068;-77
2022/01/09 00:12:13;;;;;;;7.97;7.00;;;5.50;97.70;;;;;;5138964;27;20043;-77
2022/01/09 00:14:39;;;;;;;7.57;6.00;;;5.50;97.80;;;;;;5121897;27;20049;-77
2022/01/09 00:17:05;;;;;;;6.93;5.68;;;5.50;97.70;;;;;;5155930;27;20478;-78
2022/01/09 00:19:31;;;;;;;7.68;5.53;;;5.50;97.70;;;;;;5156166;27;20490;-77
2022/01/09 00:21:57;;;;;;;9.65;6.18;;;5.60;97.80;;;;;;5156287;27;20081;-77
2022/01/09 00:24:23;;;;;;;8.60;5.60;;;5.60;97.60;;;;;;5155923;27;20056;-77
2022/01/09 00:26:49;;;;;;;11.32;6.88;;;5.60;97.60;;;;;;5153201;27;20046;-77
2022/01/09 00:29:14;;;;;;;9.15;6.63;;;5.60;97.60;;;;;;5155793;27;20039;-77
2022/01/09 00:31:40;;;;;;;9.10;6.75;;;5.50;97.60;;;;;;5156020;27;20031;-77
2022/01/09 00:34:06;;;;;;;10.00;6.78;;;5.50;97.60;;;;;;5121251;27;20038;-77
2022/01/09 00:36:32;;;;;;;8.93;6.63;;;5.50;97.60;;;;;;5155380;27;20076;-77
2022/01/09 00:38:58;;;;;;;9.57;6.53;;;5.50;97.60;;;;;;5154563;27;20038;-77
2022/01/09 00:41:24;;;;;;;10.73;6.65;;;5.50;97.70;;;;;;5121115;27;20046;-77
2022/01/09 00:43:50;;;;;;;8.00;6.20;;;5.40;97.70;;;;;;5155429;27;20394;-77
2022/01/09 00:46:16;;;;;;;11.75;6.03;;;5.50;97.70;;;;;;5155744;27;20047;-77
2022/01/09 00:48:42;;;;;;;9.23;5.53;;;5.50;97.70;;;;;;5155331;27;20099;-77
2022/01/09 00:51:08;;;;;;;10.75;4.15;;;5.50;97.70;;;;;;5155393;27;20046;-77
2022/01/09 00:53:34;;;;;;;14.27;4.32;;;5.50;97.80;;;;;;5155312;27;20087;-77
2022/01/09 00:56:00;;;;;;;12.32;3.67;;;5.50;97.80;;;;;;5155254;27;20473;-77
2022/01/09 00:58:26;;;;;;;11.77;2.60;;;5.60;97.90;;;;;;5155092;27;20046;-76
2022/01/09 01:00:53;;;;;;;11.43;2.92;;;5.70;97.90;;;;;;5137869;27;20074;-77
2022/01/09 01:03:19;;;;;;;13.52;3.47;;;5.70;97.90;;;;;;5121132;27;20474;-77
2022/01/09 01:05:45;;;;;;;15.07;3.15;;;5.80;97.90;;;;;;5155077;27;20038;-77
2022/01/09 01:08:11;;;;;;;15.20;3.97;;;5.80;97.80;;;;;;5154941;27;20042;-77
2022/01/09 01:10:36;;;;;;;18.38;4.03;;;5.80;97.80;;;;;;5155105;27;20089;-77
2022/01/09 01:13:02;;;;;;;12.88;3.35;;;5.90;97.70;;;;;;5120416;27;20038;-77
2022/01/09 01:15:28;;;;;;;11.05;3.70;;;5.90;97.60;;;;;;5137527;27;20038;-77
2022/01/09 01:17:54;;;;;;;15.60;4.00;;;5.90;97.60;;;;;;5155068;27;20041;-77
2022/01/09 01:20:22;;;;;;;13.70;4.40;;;5.90;97.50;;;;;;5120513;27;20509;-77
2022/01/09 01:22:52;;;;;;;17.98;3.35;;;5.90;97.50;;;;;;5154730;27;20516;-77
2022/01/09 01:25:21;;;;;;;16.83;4.43;;;5.90;97.60;;;;;;5154884;27;20114;-77
2022/01/09 01:27:47;;;;;;;17.55;3.90;;;5.90;97.50;;;;;;5120121;27;20047;-77
2022/01/09 01:30:13;;;;;;;23.08;5.10;;;5.90;97.50;;;;;;5154576;27;20125;-77
2022/01/09 01:32:41;;;;;;;20.50;4.15;;;5.90;97.50;;;;;;5120123;27;20039;-77
2022/01/09 01:35:07;;;;;;;17.10;4.53;;;5.90;97.50;;;;;;5137372;27;20039;-77
2022/01/09 01:37:33;;;;;;;19.63;4.97;;;5.80;97.50;;;;;;5137330;27;20046;-77
2022/01/09 01:39:59;;;;;;;21.45;4.65;;;5.80;97.50;;;;;;5154267;27;20043;-77
2022/01/09 01:42:24;;;;;;;24.88;5.97;;;5.90;97.50;;;;;;5154362;27;20414;-77
2022/01/09 01:44:50;;;;;;;26.40;5.35;;;5.90;97.50;;;;;;5154240;27;20038;-77
2022/01/09 01:47:19;;;;;;;29.08;6.85;;;5.90;97.50;;;;;;5136868;27;20048;-77
2022/01/09 01:49:45;;;;;;;19.52;4.80;;;5.90;97.50;;;;;;5153851;27;20122;-76
2022/01/09 01:52:11;;;;;;;30.70;6.57;;;5.90;97.40;;;;;;5136879;27;20038;-77
2022/01/09 01:54:39;;;;;;;33.10;6.00;;;6.00;97.30;;;;;;5154351;27;20046;-77
2022/01/09 01:57:05;;;;;;;30.50;6.38;;;6.00;97.10;;;;;;5136672;27;20095;-77
2022/01/09 01:59:31;;;;;;;29.50;7.00;;;6.00;97.10;;;;;;5153998;27;20039;-77
2022/01/09 02:01:58;;;;;;;24.95;5.78;;;6.00;97.20;;;;;;5154269;27;20064;-77
2022/01/09 02:04:24;;;;;;;36.22;6.07;;;6.00;97.10;;;;;;5153987;27;20073;-77
2022/01/09 02:06:50;;;;;;;26.35;7.57;;;6.00;97.00;;;;;;5136484;27;20065;-77
2022/01/09 02:09:17;;;;;;;42.60;9.40;;;6.00;96.90;;;;;;5153753;27;20042;-78
2022/01/09 02:11:43;;;;;;;37.90;7.05;;;6.10;97.00;;;;;;5153815;27;20063;-78
2022/01/09 02:14:09;;;;;;;35.65;7.20;;;6.00;97.00;;;;;;5153685;27;20054;-78
2022/01/09 02:16:43;;;;;;;44.63;7.57;;;6.10;96.90;;;;;;5153962;27;20038;-77
2022/01/09 02:19:13;;;;;;;42.08;6.50;;;6.20;96.80;;;;;;5154024;27;20057;-77
2022/01/09 02:21:45;;;;;;;41.30;8.15;;;6.20;96.50;;;;;;5136632;27;20046;-78
2022/01/09 02:24:12;;;;;;;30.48;6.40;;;6.30;96.40;;;;;;5153618;27;20050;-78
2022/01/09 02:26:38;;;;;;;38.60;8.15;;;6.40;96.10;;;;;;5153314;27;20135;-77
2022/01/09 02:29:05;;;;;;;35.15;8.77;;;6.40;95.70;;;;;;5153758;27;20087;-77
2022/01/09 02:31:32;;;;;;;31.27;6.35;;;6.50;95.60;;;;;;5153516;27;20042;-77
2022/01/09 02:33:58;;;;;;;41.72;7.93;;;6.50;95.40;;;;;;5136215;27;20038;-77
2022/01/09 02:36:24;;;;;;;30.50;7.07;;;6.50;95.10;;;;;;5153389;27;20041;-77
2022/01/09 02:38:49;;;;;;;28.95;6.05;;;6.50;95.00;;;;;;5153562;27;20121;-78
2022/01/09 02:41:15;;;;;;;39.10;7.15;;;6.50;94.70;;;;;;5136472;27;20390;-78
2022/01/09 02:43:41;;;;;;;28.17;5.30;;;6.60;94.70;;;;;;5136116;27;20550;-78
2022/01/09 02:48:36;;;;;;;31.17;7.82;;;6.60;94.40;;;;;;5153532;27;20137;-78
2022/01/09 02:51:12;;;;;;;26.08;5.22;;;6.60;94.20;;;;;;5153393;27;20085;-77
2022/01/09 02:53:39;;;;;;;32.72;7.22;;;6.60;94.10;;;;;;5153276;27;20038;-78
2022/01/09 02:56:06;;;;;;;33.75;6.05;;;6.60;94.10;;;;;;5153287;27;20114;-78
2022/01/09 02:58:33;;;;;;;21.50;6.78;;;6.60;94.10;;;;;;5153174;27;20038;-78
2022/01/09 03:00:59;;;;;;;37.97;7.15;;;6.50;94.00;;;;;;5137071;27;20034;-77
2022/01/09 03:03:25;;;;;;;34.35;7.18;;;6.50;93.90;;;;;;5157429;27;20046;-78
2022/01/09 03:05:51;;;;;;;33.45;8.43;;;6.60;93.90;;;;;;5157435;27;20486;-78
2022/01/09 03:08:17;;;;;;;26.10;6.18;;;6.50;93.80;;;;;;5140224;27;20038;-78
2022/01/09 03:10:43;;;;;;;24.23;5.53;;;6.60;93.80;;;;;;5157305;27;20477;-77
2022/01/09 03:13:09;;;;;;;30.40;7.03;;;6.60;93.60;;;;;;5157187;27;20058;-77
2022/01/09 03:15:35;;;;;;;26.58;6.25;;;6.60;93.40;;;;;;5157507;27;20034;-77
2022/01/09 03:18:00;;;;;;;36.50;8.15;;;6.60;93.40;;;;;;5157338;27;20074;-78
2022/01/09 03:20:27;;;;;;;34.13;6.68;;;6.60;93.20;;;;;;5157215;27;20495;-78
2022/01/09 03:22:54;;;;;;;29.35;6.13;;;6.60;93.00;;;;;;5140228;27;20379;-77
2022/01/09 03:25:21;;;;;;;16.75;3.80;;;6.60;92.90;;;;;;5157152;27;20045;-77
2022/01/09 03:27:50;;;;;;;29.42;6.28;;;6.60;93.10;;;;;;5143101;27;20046;-77
2022/01/09 03:30:18;;;;;;;25.15;5.20;;;6.60;92.80;;;;;;5143249;27;20038;-77
2022/01/09 03:32:45;;;;;;;24.73;4.60;;;6.60;92.80;;;;;;5143247;27;20045;-78
2022/01/09 03:35:13;;;;;;;29.85;6.85;;;6.60;92.60;;;;;;5160605;27;20393;-77
2022/01/09 03:37:40;;;;;;;28.40;6.68;;;6.60;92.60;;;;;;5160202;27;20042;-78
2022/01/09 03:40:09;;;;;;;22.83;5.53;;;6.60;92.50;;;;;;5160255;27;20042;-78
2022/01/09 03:42:34;;;;;;;22.90;5.07;;;6.60;92.50;;;;;;5160188;27;20034;-78
2022/01/09 03:45:00;;;;;;;29.20;4.47;;;6.50;92.60;;;;;;5160052;27;20038;-78
2022/01/09 03:47:27;;;;;;;18.48;3.80;;;6.50;92.80;;;;;;5125653;27;20099;-77
2022/01/09 03:49:53;;;;;;;25.75;5.75;;;6.50;92.50;;;;;;5160070;27;20038;-78
2022/01/09 03:52:19;;;;;;;18.40;4.15;;;6.50;92.30;;;;;;5159702;27;20150;-77
2022/01/09 03:54:44;;;;;;;26.92;4.78;;;6.50;92.30;;;;;;5160155;27;20116;-78
2022/01/09 03:57:10;;;;;;;23.25;3.85;;;6.50;92.20;;;;;;5159824;27;20121;-77
2022/01/09 03:59:36;;;;;;;29.55;5.38;;;6.50;91.90;;;;;;5125628;27;20382;-77
2022/01/09 04:02:02;;;;;;;20.05;4.15;;;6.40;92.00;;;;;;5125414;27;20568;-77
2022/01/09 04:04:27;;;;;;;29.05;5.03;;;6.40;92.00;;;;;;5142686;27;20097;-77
2022/01/09 04:06:53;;;;;;;32.65;5.93;;;6.50;91.30;;;;;;5159944;27;20506;-78
2022/01/09 04:09:38;;;;;;;18.20;3.97;;;6.50;91.30;;;;;;5142581;27;20041;-77
2022/01/09 04:12:14;;;;;;;;;;;6.40;91.30;;;;;;5142603;27;20038;-77
2022/01/09 04:14:41;;;;;;;19.25;4.32;;;6.40;91.30;;;;;;5159857;27;19915;-78
2022/01/09 04:17:12;;;;;;;20.58;3.80;;;6.40;91.30;;;;;;5159755;27;20363;-77
2022/01/09 04:19:38;;;;;;;21.50;5.70;;;6.40;91.40;;;;;;5125874;27;20046;-77
2022/01/09 04:22:04;;;;;;;16.80;4.88;;;6.40;91.40;;;;;;5159369;27;20129;-78
2022/01/09 04:24:29;;;;;;;15.93;3.85;;;6.40;91.20;;;;;;5159311;27;20121;-78
2022/01/09 04:26:55;;;;;;;19.52;3.80;;;6.30;91.30;;;;;;5159115;27;20054;-78
2022/01/09 04:29:21;;;;;;;17.13;3.55;;;6.30;91.10;;;;;;5159193;27;20049;-77
2022/01/09 04:31:46;;;;;;;24.80;4.07;;;6.30;91.10;;;;;;5125224;27;20125;-78
2022/01/09 04:34:12;;;;;;;18.77;3.63;;;6.20;91.10;;;;;;5159207;27;20038;-77
2022/01/09 04:36:38;;;;;;;18.73;4.03;;;6.20;91.20;;;;;;5142022;27;20425;-77
2022/01/09 04:39:04;;;;;;;21.48;5.60;;;6.20;91.10;;;;;;5141737;27;20034;-78
2022/01/09 04:41:30;;;;;;;18.02;2.78;;;6.30;91.10;;;;;;5159052;27;20038;-78
2022/01/09 04:43:55;;;;;;;12.32;2.35;;;6.30;90.60;;;;;;5141793;27;20042;-78
2022/01/09 04:46:29;;;;;;;8.70;2.03;;;6.20;90.50;;;;;;5159049;27;20038;-78
2022/01/09 04:48:55;;;;;;;15.32;2.92;;;6.30;89.60;;;;;;5158995;27;20477;-78
2022/01/09 04:51:21;;;;;;;13.65;3.40;;;6.20;89.20;;;;;;5141534;27;20042;-77
2022/01/09 04:53:47;;;;;;;12.32;3.22;;;6.30;89.10;;;;;;5158692;27;20046;-78
2022/01/09 04:56:13;;;;;;;18.65;4.25;;;6.20;89.40;;;;;;5124731;27;20031;-77
2022/01/09 04:58:39;;;;;;;12.55;2.88;;;6.30;89.60;;;;;;5141371;27;20048;-78
2022/01/09 05:01:04;;;;;;;15.63;3.30;;;6.30;89.80;;;;;;5158683;27;20038;-77
2022/01/09 05:03:30;;;;;;;12.82;3.05;;;6.30;90.20;;;;;;5141708;27;20045;-78
2022/01/09 05:05:56;;;;;;;17.55;3.75;;;6.20;90.30;;;;;;5158615;27;20436;-77
2022/01/09 05:08:21;;;;;;;16.63;3.75;;;6.20;90.50;;;;;;5158432;27;20038;-77
2022/01/09 05:10:47;;;;;;;21.30;4.47;;;6.20;90.70;;;;;;5141470;27;20044;-78
2022/01/09 05:13:12;;;;;;;25.77;5.80;;;6.20;90.60;;;;;;5158411;27;20467;-77
2022/01/09 05:15:38;;;;;;;24.08;5.15;;;6.20;90.60;;;;;;5141359;27;20042;-78
2022/01/09 05:18:11;;;;;;;23.20;4.55;;;6.30;90.70;;;;;;5158367;27;20121;-78
2022/01/09 05:20:37;;;;;;;18.80;4.85;;;6.10;90.90;;;;;;5142185;27;20458;-77
2022/01/09 05:23:03;;;;;;;22.50;3.83;;;6.10;90.90;;;;;;5123383;27;20121;-78
2022/01/09 05:25:29;;;;;;;23.08;5.22;;;6.10;91.00;;;;;;5140395;27;20085;-77
2022/01/09 05:27:54;;;;;;;19.08;3.80;;;6.10;91.40;;;;;;5158123;27;20450;-77
2022/01/09 05:30:20;;;;;;;17.10;4.07;;;6.10;91.50;;;;;;5123699;27;20068;-78
2022/01/09 05:32:46;;;;;;;18.63;3.53;;;6.10;91.50;;;;;;5158025;27;20038;-77
2022/01/09 05:35:12;;;;;;;19.50;4.45;;;6.10;91.30;;;;;;5158053;27;20417;-78
2022/01/09 05:37:37;;;;;;;14.98;3.28;;;6.20;91.20;;;;;;5140892;27;20038;-78
2022/01/09 05:40:04;;;;;;;20.20;3.90;;;6.10;91.10;;;;;;5157897;27;20468;-78
2022/01/09 05:42:29;;;;;;;24.00;4.82;;;6.10;91.10;;;;;;5157759;27;20050;-77
2022/01/09 05:44:55;;;;;;;18.15;3.63;;;6.10;91.50;;;;;;5123678;27;20040;-78
2022/01/09 05:47:21;;;;;;;13.52;3.03;;;6.20;91.00;;;;;;5140706;27;20519;-77
2022/01/09 05:49:46;;;;;;;13.27;3.10;;;6.20;90.80;;;;;;5157939;27;20450;-77
2022/01/09 05:52:12;;;;;;;10.68;3.28;;;6.20;90.60;;;;;;5140310;27;20150;-77
2022/01/09 05:54:38;;;;;;;19.10;4.45;;;6.10;90.40;;;;;;5140439;27;20030;-78
2022/01/09 05:57:04;;;;;;;13.45;2.75;;;6.20;90.30;;;;;;5157475;27;20091;-78
2022/01/09 05:59:30;;;;;;;13.75;3.80;;;6.10;90.30;;;;;;5157630;27;20042;-77
2022/01/09 06:01:57;;;;;;;13.93;2.63;;;6.10;89.70;;;;;;5140213;27;20084;-78
2022/01/09 06:04:23;;;;;;;17.63;3.20;;;6.10;89.70;;;;;;5140451;27;20430;-77
2022/01/09 06:06:49;;;;;;;12.43;3.97;;;6.10;89.60;;;;;;5157283;27;20042;-77
2022/01/09 06:09:15;;;;;;;18.88;3.33;;;6.10;89.40;;;;;;5157372;27;20034;-78
2022/01/09 06:11:41;;;;;;;16.45;2.40;;;6.10;89.20;;;;;;5140602;27;20084;-77
2022/01/09 06:14:07;;;;;;;16.63;2.75;;;6.10;89.30;;;;;;5157220;27;20478;-77
2022/01/09 06:16:32;;;;;;;12.25;1.90;;;6.00;89.20;;;;;;5157486;27;20030;-77
2022/01/09 06:18:58;;;;;;;16.70;2.60;;;6.10;89.40;;;;;;5105743;27;20034;-77
2022/01/09 06:21:26;;;;;;;19.08;2.90;;;6.00;89.40;;;;;;5157443;27;20046;-78
2022/01/09 06:23:52;;;;;;;10.93;3.55;;;6.00;89.70;;;;;;5140396;27;20627;-77
2022/01/09 06:26:18;;;;;;;19.00;3.38;;;5.90;89.80;;;;;;5157183;27;20062;-77
2022/01/09 06:28:44;;;;;;;16.48;3.05;;;5.80;90.30;;;;;;5157261;27;20532;-78
2022/01/09 06:31:09;;;;;;;18.58;3.72;;;5.80;90.60;;;;;;5140137;27;20038;-78
2022/01/09 06:33:35;;;;;;;27.15;4.65;;;5.70;90.80;;;;;;5156978;27;20095;-78
2022/01/09 06:36:01;;;;;;;16.35;3.58;;;5.70;90.80;;;;;;5139977;27;20481;-77
2022/01/09 06:38:27;;;;;;;12.82;3.30;;;5.60;90.90;;;;;;5156917;27;20038;-78
2022/01/09 06:40:53;;;;;;;12.80;3.80;;;5.60;91.30;;;;;;5157268;27;20034;-77
2022/01/09 06:43:18;;;;;;;20.15;3.50;;;5.60;91.10;;;;;;5139637;27;20442;-77
2022/01/09 06:45:44;;;;;;;20.23;3.42;;;5.60;91.40;;;;;;5139654;27;20042;-77
2022/01/09 06:48:10;;;;;;;11.60;2.72;;;5.50;91.10;;;;;;5156846;27;20470;-77
2022/01/09 06:50:36;;;;;;;16.60;3.20;;;5.50;91.40;;;;;;5139518;27;20067;-78
2022/01/09 06:53:02;;;;;;;15.15;2.33;;;5.50;91.20;;;;;;5139540;27;20110;-77
2022/01/09 06:55:28;;;;;;;12.27;2.63;;;5.50;90.70;;;;;;5139445;27;20038;-77
2022/01/09 06:57:54;;;;;;;12.48;1.70;;;5.60;89.90;;;;;;5139503;27;20030;-77
2022/01/09 07:00:21;;;;;;;9.60;1.80;;;5.60;89.30;;;;;;5139544;27;20095;-77
2022/01/09 07:02:47;;;;;;;7.72;2.10;;;5.60;89.30;;;;;;5156637;27;20042;-77
2022/01/09 07:05:13;;;;;;;7.43;1.83;;;5.60;88.80;;;;;;5156603;27;20038;-77
2022/01/09 07:07:39;;;;;;;8.13;1.80;;;5.60;88.60;;;;;;5156817;27;20038;-77
2022/01/09 07:10:06;;;;;;;8.75;1.55;;;5.60;88.60;;;;;;5157135;27;20133;-77
2022/01/09 07:12:31;;;;;;;7.82;1.35;;;5.60;88.00;;;;;;5156538;27;20561;-77
2022/01/09 07:14:57;;;;;;;12.77;2.67;;;5.60;87.60;;;;;;5139436;27;20117;-77
2022/01/09 07:17:23;;;;;;;8.15;1.13;;;5.60;87.50;;;;;;5139222;27;20090;-77
2022/01/09 07:19:49;;;;;;;7.13;1.75;;;5.60;87.60;;;;;;5156756;27;20074;-78
2022/01/09 07:22:14;;;;;;;5.45;1.45;;;5.50;87.60;;;;;;5156570;27;20489;-77
2022/01/09 07:24:40;;;;;;;9.50;1.98;;;5.50;87.40;;;;;;5139571;27;20045;-77
2022/01/09 07:27:06;;;;;;;9.57;1.60;;;5.60;87.40;;;;;;5139052;27;20509;-77
2022/01/09 07:29:32;;;;;;;6.47;1.33;;;5.60;87.50;;;;;;5156507;27;20125;-77
2022/01/09 07:31:57;;;;;;;4.13;1.40;;;5.70;88.10;;;;;;5156454;27;20138;-76
2022/01/09 07:34:23;;;;;;;8.32;2.17;;;5.80;88.80;;;;;;5156193;27;20045;-77
2022/01/09 07:36:49;;;;;;;8.65;2.42;;;5.70;89.40;;;;;;5156222;27;20385;-76
2022/01/09 07:39:15;;;;;;;16.88;2.70;;;5.70;89.90;;;;;;5156602;27;20046;-76
2022/01/09 07:41:41;;;;;;;19.38;3.65;;;5.70;90.20;;;;;;5139042;27;20485;-77
2022/01/09 07:44:07;;;;;;;17.30;3.13;;;5.70;90.70;;;;;;5121814;27;20042;-77
2022/01/09 07:46:33;;;;;;;12.77;2.65;;;5.60;90.70;;;;;;5139262;27;20071;-77
2022/01/09 07:48:59;;;;;;;11.63;2.28;;;5.60;90.90;;;;;;5142888;27;20041;-77
2022/01/09 07:51:25;;;;;;;14.57;2.85;;;5.60;90.60;;;;;;5160181;27;20053;-77
2022/01/09 07:53:50;;;;;;;11.77;3.65;;;5.50;90.80;;;;;;5159847;27;20490;-77
2022/01/09 07:56:16;;;;;;;9.48;2.70;;;5.50;91.10;;;;;;5159771;27;20034;-77
2022/01/09 07:58:42;;;;;;;8.10;2.10;;;5.40;91.00;;;;;;5159634;27;20388;-77
2022/01/09 08:01:08;;;;;;;11.32;2.85;;;5.40;91.00;;;;;;5159916;27;20042;-77
2022/01/09 08:03:36;;;;;;;10.73;1.77;;;5.40;91.00;;;;;;5160071;27;20034;-77
2022/01/09 08:06:02;;;;;;;11.25;3.10;;;5.40;91.20;;;;;;5160086;27;20100;-77
2022/01/09 08:08:28;;;;;;;14.77;2.95;;;5.50;91.50;;;;;;5142989;27;20049;-78
2022/01/09 08:10:54;;;;;;;14.27;3.15;;;5.50;91.50;;;;;;5160147;27;20534;-77
2022/01/09 08:13:20;;;;;;;20.17;3.25;;;5.50;91.60;;;;;;5159668;27;20049;-78
2022/01/09 08:15:46;;;;;;;17.00;2.45;;;5.40;91.80;;;;;;5159966;27;20402;-78
2022/01/09 08:18:11;;;;;;;11.73;3.03;;;5.50;92.30;;;;;;5142111;27;20117;-78
2022/01/09 08:20:37;;;;;;;18.67;3.05;;;5.50;92.20;;;;;;5159516;27;20040;-79
2022/01/09 08:23:03;;;;;;;10.27;2.78;;;5.60;92.10;;;;;;5160008;27;20038;-78
2022/01/09 08:25:29;;;;;;;9.52;3.03;;;5.60;92.00;;;;;;5159786;27;20038;-79
2022/01/09 08:27:55;;;;;;;18.80;3.55;;;5.60;91.80;;;;;;5159605;27;20098;-77
2022/01/09 08:30:21;;;;;;;12.20;2.28;;;5.60;91.80;;;;;;5142622;27;20057;-81
2022/01/09 08:32:48;;;;;;;12.32;3.40;;;5.60;92.00;;;;;;5142474;27;20125;-80
2022/01/09 08:35:15;;;;;;;7.78;1.40;;;5.50;91.10;;;;;;5159809;27;20030;-80
2022/01/09 08:37:42;;;;;;;5.53;1.33;;;5.40;91.40;;;;;;5142364;27;20486;-79
2022/01/09 08:40:13;;;;;;;7.45;1.25;;;5.40;90.00;;;;;;5159636;27;20041;-79
2022/01/09 08:42:39;;;;;;;4.30;1.10;;;5.50;88.30;;;;;;5159686;27;20490;-78
2022/01/09 08:45:06;;;;;;;5.43;1.02;;;5.50;88.20;;;;;;5159446;27;20049;-79
2022/01/09 08:47:35;;;;;;;5.30;1.08;;;5.60;87.40;;;;;;5159433;27;20042;-80
2022/01/09 08:50:02;;;;;;;6.32;1.70;;;5.60;87.90;;;;;;5125849;27;20038;-79
2022/01/09 08:52:27;;;;;;;8.13;1.55;;;5.60;88.60;;;;;;5159324;27;20049;-79
2022/01/09 08:54:53;;;;;;;13.65;2.20;;;5.50;89.00;;;;;;5159387;27;20038;-80
2022/01/09 08:57:19;;;;;;;6.53;1.70;;;5.40;89.60;;;;;;5124558;27;20129;-80
2022/01/09 08:59:44;;;;;;;11.25;2.20;;;5.30;90.00;;;;;;5140702;27;20077;-80
2022/01/09 09:02:10;;;;;;;10.85;2.08;;;5.30;90.40;;;;;;5158644;27;20041;-80
2022/01/09 09:04:38;;;;;;;9.80;2.53;;;5.30;90.80;;;;;;5141399;27;20030;-80
2022/01/09 09:07:04;;;;;;;12.38;3.17;;;5.30;91.00;;;;;;5141584;27;20075;-80
2022/01/09 09:09:29;;;;;;;12.55;2.58;;;5.20;91.10;;;;;;5158601;27;20185;-81
2022/01/09 09:11:55;;;;;;;13.05;3.65;;;5.10;91.20;;;;;;5124360;27;20030;-79
2022/01/09 09:14:22;;;;;;;12.88;2.97;;;5.10;90.90;;;;;;5158412;27;20073;-80
2022/01/09 09:16:48;;;;;;;11.82;2.28;;;5.20;91.40;;;;;;5124374;27;20038;-79
2022/01/09 09:19:13;;;;;;;13.55;2.10;;;5.20;91.30;;;;;;5141079;27;20026;-80
2022/01/09 09:21:39;;;;;;;8.20;1.92;;;5.20;91.40;;;;;;5140966;27;20043;-80
2022/01/09 09:24:05;;;;;;;10.50;1.75;;;5.20;91.00;;;;;;5141105;27;20038;-80
2022/01/09 09:26:31;;;;;;;7.93;1.50;;;5.20;91.00;;;;;;5157846;27;20051;-80
2022/01/09 09:28:56;;;;;;;14.30;2.40;;;5.20;91.10;;;;;;5140855;27;20046;-79
2022/01/09 09:31:22;;;;;;;6.82;1.58;;;5.20;91.20;;;;;;5140955;27;20042;-79
2022/01/09 09:33:48;;;;;;;8.10;1.85;;;5.30;90.60;;;;;;5157981;27;20094;-80
2022/01/09 09:36:14;;;;;;;9.07;1.45;;;5.20;90.80;;;;;;5141032;27;20125;-80
2022/01/09 09:38:39;;;;;;;6.70;1.30;;;5.20;90.90;;;;;;5157906;27;20482;-80
2022/01/09 09:41:05;;;;;;;8.68;1.83;;;5.20;90.90;;;;;;5157997;27;20034;-80
2022/01/09 09:43:31;;;;;;;10.82;1.90;;;5.20;91.00;;;;;;5157915;27;20038;-80
2022/01/09 09:45:57;;;;;;;6.35;1.75;;;5.20;91.10;;;;;;5158174;27;20151;-80
2022/01/09 09:48:22;;;;;;;9.68;2.63;;;5.30;91.40;;;;;;5140824;27;20470;-79
2022/01/09 09:50:48;;;;;;;10.90;2.13;;;5.40;91.30;;;;;;5140559;27;20124;-80
2022/01/09 09:53:14;;;;;;;9.43;2.58;;;5.50;91.70;;;;;;5157870;27;20038;-80
2022/01/09 09:55:41;;;;;;;9.93;2.08;;;5.60;91.50;;;;;;5140285;27;20034;-80
2022/01/09 09:58:06;;;;;;;13.43;2.80;;;5.70;91.60;;;;;;5157488;27;20030;-79
2022/01/09 10:00:33;;;;;;;12.90;2.45;;;5.70;91.60;;;;;;5140283;27;20110;-80
2022/01/09 10:03:01;;;;;;;9.90;3.17;;;5.80;91.60;;;;;;5140367;27;20494;-80
2022/01/09 10:05:34;;;;;;;18.05;2.95;;;5.80;91.50;;;;;;5157482;27;20042;-80
2022/01/09 10:08:08;;;;;;;14.90;2.92;;;5.80;91.50;;;;;;5140060;27;20073;-80
2022/01/09 10:10:36;;;;;;;19.65;4.93;;;5.90;91.50;;;;;;5156956;27;20044;-79
2022/01/09 10:13:06;;;;;;;13.23;2.28;;;5.90;91.60;;;;;;5157375;27;20485;-79
2022/01/09 10:15:55;;;;;;;13.52;3.22;;;5.80;91.70;;;;;;5157301;27;20099;-79
2022/01/09 10:18:42;;;;;;;18.70;4.30;;;5.80;91.90;;;;;;5140371;27;20092;-78
2022/01/09 10:21:13;;;;;;;10.30;2.63;;;5.80;92.20;;;;;;5140034;27;20110;-79
2022/01/09 10:23:59;;;;;;;17.83;3.75;;;5.90;92.30;;;;;;5157534;27;20389;-80
2022/01/09 10:26:25;;;;;;;18.30;3.88;;;6.00;92.30;;;;;;5156919;27;20141;-79
2022/01/09 10:28:51;;;;;;;15.07;2.72;;;6.00;91.90;;;;;;5140024;27;20133;-79
2022/01/09 10:31:19;;;;;;;15.80;4.72;;;6.10;91.50;;;;;;5157279;27;20034;-80
2022/01/09 10:34:02;;;;;;;10.73;2.67;;;6.00;91.60;;;;;;5157019;27;20485;-80
2022/01/09 10:36:36;;;;;;;7.22;2.05;;;6.10;91.60;;;;;;5157466;27;20030;-80
2022/01/09 10:39:08;;;;;;;12.43;2.20;;;6.10;91.10;;;;;;5139832;27;20095;-80
2022/01/09 10:41:58;;;;;;;12.82;3.10;;;6.10;90.80;;;;;;5157066;27;20038;-79
2022/01/09 10:44:34;;;;;;;13.20;3.33;;;6.30;90.10;;;;;;5156880;27;20125;-80
2022/01/09 10:47:12;;;;;;;8.50;1.60;;;6.30;89.70;;;;;;5139563;27;20049;-80
2022/01/09 10:49:48;;;;;;;7.97;1.85;;;6.40;89.40;;;;;;5156959;27;20046;-80
2022/01/09 10:52:19;;;;;;;11.85;2.65;;;6.50;88.90;;;;;;5157038;27;20393;-80
2022/01/09 10:54:46;;;;;;;9.27;1.83;;;6.50;88.90;;;;;;5157203;27;20074;-81
2022/01/09 10:57:24;;;;;;;12.73;2.33;;;6.60;88.50;;;;;;5156710;27;20126;-80
2022/01/09 10:59:51;;;;;;;12.27;2.30;;;6.70;88.00;;;;;;5139744;27;20389;-80
2022/01/09 11:02:18;;;;;;;11.55;1.77;;;6.80;87.90;;;;;;5157243;27;20041;-81
2022/01/09 11:04:46;;;;;;;10.57;1.85;;;6.90;87.70;;;;;;5157236;27;20086;-79
2022/01/09 11:07:12;;;;;;;9.55;1.48;;;6.90;87.70;;;;;;5122934;27;20039;-79
2022/01/09 11:09:40;;;;;;;8.65;1.55;;;7.00;87.30;;;;;;5139922;27;20482;-79
2022/01/09 11:12:10;;;;;;;13.80;1.77;;;7.00;86.80;;;;;;5139979;27;20034;-80
2022/01/09 11:14:41;;;;;;;11.02;2.55;;;7.00;86.40;;;;;;5139980;27;20038;-79
2022/01/09 11:17:08;;;;;;;6.00;1.67;;;7.00;86.50;;;;;;5139881;27;20031;-79
2022/01/09 11:19:34;;;;;;;8.35;1.60;;;7.00;86.40;;;;;;5157163;27;20049;-79
2022/01/09 11:22:05;;;;;;;10.90;2.85;;;6.80;86.50;;;;;;5157960;27;20452;-79
2022/01/09 11:25:00;;;;;;;8.68;2.58;;;6.90;86.40;;;;;;5142530;27;20042;-79
2022/01/09 11:27:52;;;;;;;7.80;2.38;;;6.80;86.80;;;;;;5151674;27;20082;-79
2022/01/09 11:30:33;;;;;;;9.90;2.17;;;6.80;87.00;;;;;;5143232;27;20038;-79
2022/01/09 11:33:24;;;;;;;10.90;2.00;;;6.80;87.50;;;;;;5143108;27;20045;-80
2022/01/09 11:36:27;;;;;;;8.55;2.08;;;6.70;87.80;;;;;;5131616;27;20133;-79
2022/01/09 11:39:11;;;;;;;8.73;2.15;;;6.80;88.30;;;;;;5143291;27;20077;-79
2022/01/09 11:41:40;;;;;;;14.18;2.05;;;6.90;87.90;;;;;;5160290;27;20040;-79
2022/01/09 11:44:09;;;;;;;11.77;2.00;;;6.90;87.70;;;;;;5143344;27;20038;-79
2022/01/09 11:46:55;;;;;;;10.57;3.30;;;7.00;87.30;;;;;;5160308;27;20577;-80
2022/01/09 11:49:21;;;;;;;9.40;2.00;;;7.00;86.90;;;;;;5160157;27;20041;-80
2022/01/09 11:51:59;;;;;;;7.85;1.98;;;7.00;86.30;;;;;;5142819;27;20442;-79
2022/01/09 11:54:26;;;;;;;5.68;2.55;;;7.00;86.40;;;;;;5142999;27;20460;-79
2022/01/09 11:57:08;;;;;;;6.93;1.80;;;7.00;86.10;;;;;;5160030;27;20529;-79
2022/01/09 11:59:55;;;;;;;11.88;2.03;;;7.00;85.90;;;;;;5142989;27;20038;-79
2022/01/09 12:02:27;;;;;;;7.78;1.77;;;7.10;85.80;;;;;;5159900;27;20043;-79
2022/01/09 12:04:54;;;;;;;5.13;1.77;;;7.30;85.20;;;;;;5160251;27;20038;-79
2022/01/09 12:08:03;;;;;;;8.30;1.95;;;7.20;85.40;;;;;;5142466;27;20034;-80
2022/01/09 12:10:37;;;;;;;6.05;1.80;;;7.10;85.60;;;;;;5131675;27;20050;-80
2022/01/09 12:13:05;;;;;;;8.20;1.45;;;7.00;85.30;;;;;;5159631;27;20042;-80
2022/01/09 12:15:36;;;;;;;3.38;1.50;;;6.80;85.10;;;;;;5159911;27;20042;-79
2022/01/09 12:18:03;;;;;;;6.80;1.90;;;6.70;85.80;;;;;;5142269;27;20473;-80
2022/01/09 12:20:37;;;;;;;7.30;1.33;;;6.50;85.70;;;;;;5125412;27;20061;-80
2022/01/09 12:23:04;;;;;;;6.05;1.20;;;6.50;86.20;;;;;;5159541;27;20042;-78
2022/01/09 12:25:33;;;;;;;7.50;1.08;;;6.40;86.60;;;;;;5142714;27;20396;-79
2022/01/09 12:28:18;;;;;;;3.83;1.17;;;6.30;86.50;;;;;;5159185;27;20058;-79
2022/01/09 12:31:01;;;;;;;5.47;1.42;;;6.20;86.50;;;;;;5142414;27;20390;-80
2022/01/09 12:33:31;;;;;;;4.60;1.20;;;6.10;86.70;;;;;;5159138;27;20034;-79
2022/01/09 12:36:13;;;;;;;8.57;1.77;;;6.10;86.90;;;;;;5159293;27;20116;-79
2022/01/09 12:38:44;;;;;;;8.32;1.30;;;6.30;86.80;;;;;;5159177;27;20546;-79
2022/01/09 12:41:20;;;;;;;6.15;1.23;;;6.30;86.70;;;;;;5142193;27;20072;-79
2022/01/09 12:43:47;;;;;;;7.28;1.20;;;6.20;87.20;;;;;;5141803;27;20083;-79
2022/01/09 12:46:18;;;;;;;3.97;0.90;;;6.20;87.30;;;;;;5141634;27;20038;-78
2022/01/09 12:48:56;;;;;;;4.80;1.55;;;6.10;87.90;;;;;;5141520;27;20046;-78
2022/01/09 12:51:22;;;;;;;9.10;2.33;;;6.00;88.30;;;;;;5158920;27;20486;-78
2022/01/09 12:53:50;;;;;;;9.00;1.77;;;6.10;88.30;;;;;;5158763;27;20046;-79
2022/01/09 12:56:16;;;;;;;5.57;1.40;;;6.00;88.60;;;;;;5141423;27;20038;-79